sensor_id;sensor_type;location;lat;lon;timestamp;P1;durP1;ratioP1;P2;durP2;ratioP2
49824;SDS011;35714;55.708;37.478;2023-03-01T00:01:21;1.70;;;0.30;;
49824;SDS011;35714;55.708;37.478;2023-03-01T00:03:48;1.77;;;0.30;;
49824;SDS011;35714;55.708;37.478;2023-03-01T00:06:14;3.15;;;0.80;;
49824;SDS011;35714;55.708;37.478;2023-03-01T00:08:40;1.55;;;0.40;;
49824;SDS011;35714;55.708;37.478;2023-03-01T00:11:16;2.40;;;0.50;;
49824;SDS011;35714;55.708;37.478;2023-03-01T00:13:43;1.13;;;0.30;;
49824;SDS011;35714;55.708;37.478;2023-03-01T00:16:11;1.40;;;0.30;;
49824;SDS011;35714;55.708;37.478;2023-03-01T00:18:39;0.95;;;0.28;;
49824;SDS011;35714;55.708;37.478;2023-03-01T00:21:05;1.88;;;0.40;;
49824;SDS011;35714;55.708;37.478;2023-03-01T00:23:31;1.98;;;0.40;;
49824;SDS011;35714;55.708;37.478;2023-03-01T00:25:58;0.90;;;0.20;;
49824;SDS011;35714;55.708;37.478;2023-03-01T00:28:24;2.33;;;0.40;;
49824;SDS011;35714;55.708;37.478;2023-03-01T00:30:49;1.92;;;0.30;;
49824;SDS011;35714;55.708;37.478;2023-03-01T00:33:15;1.33;;;0.32;;
49824;SDS011;35714;55.708;37.478;2023-03-01T00:35:41;3.47;;;0.50;;
49824;SDS011;35714;55.708;37.478;2023-03-01T00:38:07;1.65;;;0.20;;
49824;SDS011;35714;55.708;37.478;2023-03-01T00:40:34;2.20;;;0.43;;
49824;SDS011;35714;55.708;37.478;2023-03-01T00:43:01;3.75;;;0.40;;
49824;SDS011;35714;55.708;37.478;2023-03-01T00:45:27;1.88;;;0.30;;
49824;SDS011;35714;55.708;37.478;2023-03-01T00:47:53;1.05;;;0.30;;
49824;SDS011;35714;55.708;37.478;2023-03-01T00:50:19;3.50;;;0.55;;
49824;SDS011;35714;55.708;37.478;2023-03-01T00:52:45;2.33;;;0.40;;
49824;SDS011;35714;55.708;37.478;2023-03-01T00:55:11;4.18;;;0.50;;
49824;SDS011;35714;55.708;37.478;2023-03-01T00:57:37;1.45;;;0.47;;
49824;SDS011;35714;55.708;37.478;2023-03-01T01:00:04;1.77;;;0.60;;
49824;SDS011;35714;55.708;37.478;2023-03-01T01:02:32;2.38;;;0.50;;
49824;SDS011;35714;55.708;37.478;2023-03-01T01:04:59;3.65;;;0.63;;
49824;SDS011;35714;55.708;37.478;2023-03-01T01:07:25;1.60;;;0.20;;
49824;SDS011;35714;55.708;37.478;2023-03-01T01:09:51;3.28;;;0.82;;
49824;SDS011;35714;55.708;37.478;2023-03-01T01:12:16;2.30;;;0.50;;
49824;SDS011;35714;55.708;37.478;2023-03-01T01:14:42;3.65;;;0.50;;
49824;SDS011;35714;55.708;37.478;2023-03-01T01:17:08;4.90;;;0.25;;
49824;SDS011;35714;55.708;37.478;2023-03-01T01:19:34;1.38;;;0.30;;
49824;SDS011;35714;55.708;37.478;2023-03-01T01:21:59;1.38;;;0.30;;
49824;SDS011;35714;55.708;37.478;2023-03-01T01:24:25;4.35;;;0.63;;
49824;SDS011;35714;55.708;37.478;2023-03-01T01:26:51;1.15;;;0.30;;
49824;SDS011;35714;55.708;37.478;2023-03-01T01:29:17;1.13;;;0.32;;
49824;SDS011;35714;55.708;37.478;2023-03-01T01:31:43;2.15;;;0.40;;
49824;SDS011;35714;55.708;37.478;2023-03-01T01:34:12;2.00;;;0.40;;
49824;SDS011;35714;55.708;37.478;2023-03-01T01:36:40;1.73;;;0.50;;
49824;SDS011;35714;55.708;37.478;2023-03-01T01:39:06;2.10;;;0.50;;
49824;SDS011;35714;55.708;37.478;2023-03-01T01:41:32;5.07;;;0.68;;
49824;SDS011;35714;55.708;37.478;2023-03-01T01:49:33;2.42;;;0.40;;
49824;SDS011;35714;55.708;37.478;2023-03-01T01:52:14;1.92;;;0.40;;
49824;SDS011;35714;55.708;37.478;2023-03-01T01:57:36;3.00;;;0.25;;
49824;SDS011;35714;55.708;37.478;2023-03-01T02:00:09;2.15;;;0.93;;
49824;SDS011;35714;55.708;37.478;2023-03-01T02:02:39;2.50;;;0.57;;
49824;SDS011;35714;55.708;37.478;2023-03-01T02:05:09;1.48;;;0.40;;
49824;SDS011;35714;55.708;37.478;2023-03-01T02:07:40;1.23;;;0.20;;
49824;SDS011;35714;55.708;37.478;2023-03-01T02:10:07;1.17;;;0.35;;
49824;SDS011;35714;55.708;37.478;2023-03-01T02:12:33;2.53;;;0.43;;
49824;SDS011;35714;55.708;37.478;2023-03-01T02:15:00;1.17;;;0.32;;
49824;SDS011;35714;55.708;37.478;2023-03-01T02:17:26;2.30;;;0.70;;
49824;SDS011;35714;55.708;37.478;2023-03-01T02:22:50;2.13;;;0.50;;
49824;SDS011;35714;55.708;37.478;2023-03-01T02:30:44;1.42;;;0.40;;
49824;SDS011;35714;55.708;37.478;2023-03-01T02:33:31;1.38;;;0.60;;
49824;SDS011;35714;55.708;37.478;2023-03-01T02:36:02;1.63;;;0.47;;
49824;SDS011;35714;55.708;37.478;2023-03-01T02:38:31;3.65;;;0.52;;
49824;SDS011;35714;55.708;37.478;2023-03-01T02:40:57;1.33;;;0.20;;
49824;SDS011;35714;55.708;37.478;2023-03-01T02:43:26;0.80;;;0.30;;
49824;SDS011;35714;55.708;37.478;2023-03-01T02:45:57;1.67;;;0.50;;
49824;SDS011;35714;55.708;37.478;2023-03-01T02:48:38;2.17;;;0.40;;
49824;SDS011;35714;55.708;37.478;2023-03-01T02:56:27;1.92;;;0.40;;
49824;SDS011;35714;55.708;37.478;2023-03-01T02:58:54;1.88;;;0.30;;
49824;SDS011;35714;55.708;37.478;2023-03-01T03:01:20;1.05;;;0.20;;
49824;SDS011;35714;55.708;37.478;2023-03-01T03:03:46;1.33;;;0.30;;
49824;SDS011;35714;55.708;37.478;2023-03-01T03:06:12;5.07;;;0.50;;
49824;SDS011;35714;55.708;37.478;2023-03-01T03:08:38;4.38;;;0.43;;
49824;SDS011;35714;55.708;37.478;2023-03-01T03:11:04;1.58;;;0.30;;
49824;SDS011;35714;55.708;37.478;2023-03-01T03:13:30;1.25;;;0.40;;
49824;SDS011;35714;55.708;37.478;2023-03-01T03:15:56;1.65;;;0.25;;
49824;SDS011;35714;55.708;37.478;2023-03-01T03:18:22;4.93;;;0.55;;
49824;SDS011;35714;55.708;37.478;2023-03-01T03:20:51;2.25;;;0.50;;
49824;SDS011;35714;55.708;37.478;2023-03-01T03:23:19;1.17;;;0.20;;
49824;SDS011;35714;55.708;37.478;2023-03-01T03:25:47;0.25;;;0.20;;
49824;SDS011;35714;55.708;37.478;2023-03-01T03:28:14;1.38;;;0.30;;
49824;SDS011;35714;55.708;37.478;2023-03-01T03:30:41;2.90;;;0.32;;
49824;SDS011;35714;55.708;37.478;2023-03-01T03:33:08;2.63;;;0.47;;
49824;SDS011;35714;55.708;37.478;2023-03-01T03:35:39;2.30;;;0.43;;
49824;SDS011;35714;55.708;37.478;2023-03-01T03:38:08;2.80;;;0.43;;
49824;SDS011;35714;55.708;37.478;2023-03-01T03:40:44;1.08;;;0.30;;
49824;SDS011;35714;55.708;37.478;2023-03-01T03:43:13;1.65;;;0.32;;
49824;SDS011;35714;55.708;37.478;2023-03-01T03:45:39;1.05;;;0.30;;
49824;SDS011;35714;55.708;37.478;2023-03-01T03:48:06;1.85;;;0.50;;
49824;SDS011;35714;55.708;37.478;2023-03-01T03:50:33;2.17;;;0.47;;
49824;SDS011;35714;55.708;37.478;2023-03-01T03:53:03;1.13;;;0.30;;
49824;SDS011;35714;55.708;37.478;2023-03-01T03:55:30;0.68;;;0.28;;
49824;SDS011;35714;55.708;37.478;2023-03-01T03:57:58;4.68;;;0.75;;
49824;SDS011;35714;55.708;37.478;2023-03-01T04:00:27;2.10;;;0.40;;
49824;SDS011;35714;55.708;37.478;2023-03-01T04:02:53;3.72;;;0.88;;
49824;SDS011;35714;55.708;37.478;2023-03-01T04:05:21;2.55;;;0.40;;
49824;SDS011;35714;55.708;37.478;2023-03-01T04:07:48;1.60;;;0.50;;
49824;SDS011;35714;55.708;37.478;2023-03-01T04:10:17;2.22;;;0.30;;
49824;SDS011;35714;55.708;37.478;2023-03-01T04:12:43;4.97;;;0.70;;
49824;SDS011;35714;55.708;37.478;2023-03-01T04:15:09;3.00;;;0.93;;
49824;SDS011;35714;55.708;37.478;2023-03-01T04:17:43;3.33;;;0.55;;
49824;SDS011;35714;55.708;37.478;2023-03-01T04:20:10;2.60;;;0.60;;
49824;SDS011;35714;55.708;37.478;2023-03-01T04:22:38;4.32;;;0.88;;
49824;SDS011;35714;55.708;37.478;2023-03-01T04:25:04;3.08;;;0.60;;
49824;SDS011;35714;55.708;37.478;2023-03-01T04:27:34;2.67;;;0.63;;
49824;SDS011;35714;55.708;37.478;2023-03-01T04:30:01;2.65;;;0.60;;
49824;SDS011;35714;55.708;37.478;2023-03-01T04:32:31;1.80;;;0.50;;
49824;SDS011;35714;55.708;37.478;2023-03-01T04:34:57;1.60;;;0.47;;
49824;SDS011;35714;55.708;37.478;2023-03-01T04:37:22;3.65;;;0.52;;
49824;SDS011;35714;55.708;37.478;2023-03-01T04:39:49;3.55;;;0.90;;
49824;SDS011;35714;55.708;37.478;2023-03-01T04:42:15;6.38;;;0.70;;
49824;SDS011;35714;55.708;37.478;2023-03-01T04:44:42;3.72;;;0.85;;
49824;SDS011;35714;55.708;37.478;2023-03-01T04:47:08;2.67;;;0.50;;
49824;SDS011;35714;55.708;37.478;2023-03-01T04:49:34;2.50;;;0.50;;
49824;SDS011;35714;55.708;37.478;2023-03-01T04:51:59;2.80;;;0.50;;
49824;SDS011;35714;55.708;37.478;2023-03-01T04:54:30;2.08;;;0.50;;
49824;SDS011;35714;55.708;37.478;2023-03-01T04:56:57;3.33;;;0.73;;
49824;SDS011;35714;55.708;37.478;2023-03-01T04:59:23;4.93;;;0.50;;
49824;SDS011;35714;55.708;37.478;2023-03-01T05:01:50;2.83;;;0.70;;
49824;SDS011;35714;55.708;37.478;2023-03-01T05:04:16;5.18;;;0.85;;
49824;SDS011;35714;55.708;37.478;2023-03-01T05:06:41;3.58;;;0.85;;
49824;SDS011;35714;55.708;37.478;2023-03-01T05:09:07;3.90;;;0.82;;
49824;SDS011;35714;55.708;37.478;2023-03-01T05:11:33;2.45;;;0.75;;
49824;SDS011;35714;55.708;37.478;2023-03-01T05:14:01;2.70;;;0.65;;
49824;SDS011;35714;55.708;37.478;2023-03-01T05:16:27;2.97;;;0.90;;
49824;SDS011;35714;55.708;37.478;2023-03-01T05:18:53;2.78;;;1.10;;
49824;SDS011;35714;55.708;37.478;2023-03-01T05:21:20;4.60;;;1.38;;
49824;SDS011;35714;55.708;37.478;2023-03-01T05:23:46;7.13;;;1.50;;
49824;SDS011;35714;55.708;37.478;2023-03-01T05:26:12;10.15;;;1.80;;
49824;SDS011;35714;55.708;37.478;2023-03-01T05:28:38;6.65;;;2.03;;
49824;SDS011;35714;55.708;37.478;2023-03-01T05:31:05;5.25;;;1.80;;
49824;SDS011;35714;55.708;37.478;2023-03-01T05:33:38;7.97;;;2.40;;
49824;SDS011;35714;55.708;37.478;2023-03-01T05:36:05;7.53;;;2.15;;
49824;SDS011;35714;55.708;37.478;2023-03-01T05:38:32;7.00;;;2.67;;
49824;SDS011;35714;55.708;37.478;2023-03-01T05:40:59;4.18;;;1.98;;
49824;SDS011;35714;55.708;37.478;2023-03-01T05:43:25;3.38;;;1.60;;
49824;SDS011;35714;55.708;37.478;2023-03-01T05:45:51;3.88;;;1.77;;
49824;SDS011;35714;55.708;37.478;2023-03-01T05:48:16;5.38;;;2.00;;
49824;SDS011;35714;55.708;37.478;2023-03-01T05:50:45;4.63;;;1.52;;
49824;SDS011;35714;55.708;37.478;2023-03-01T05:53:13;10.90;;;2.22;;
49824;SDS011;35714;55.708;37.478;2023-03-01T05:55:40;4.47;;;1.42;;
49824;SDS011;35714;55.708;37.478;2023-03-01T05:58:09;5.18;;;1.30;;
49824;SDS011;35714;55.708;37.478;2023-03-01T06:00:39;4.65;;;1.55;;
49824;SDS011;35714;55.708;37.478;2023-03-01T06:03:05;4.53;;;1.45;;
49824;SDS011;35714;55.708;37.478;2023-03-01T06:05:31;5.82;;;1.65;;
49824;SDS011;35714;55.708;37.478;2023-03-01T06:08:00;4.80;;;1.77;;
49824;SDS011;35714;55.708;37.478;2023-03-01T06:10:27;7.60;;;1.27;;
49824;SDS011;35714;55.708;37.478;2023-03-01T06:12:52;4.20;;;1.25;;
49824;SDS011;35714;55.708;37.478;2023-03-01T06:15:19;6.03;;;1.40;;
49824;SDS011;35714;55.708;37.478;2023-03-01T06:17:45;3.85;;;1.05;;
49824;SDS011;35714;55.708;37.478;2023-03-01T06:20:15;5.18;;;1.00;;
49824;SDS011;35714;55.708;37.478;2023-03-01T06:22:45;4.82;;;1.10;;
49824;SDS011;35714;55.708;37.478;2023-03-01T06:25:13;2.72;;;0.57;;
49824;SDS011;35714;55.708;37.478;2023-03-01T06:27:41;3.10;;;0.80;;
49824;SDS011;35714;55.708;37.478;2023-03-01T06:30:08;5.97;;;1.27;;
49824;SDS011;35714;55.708;37.478;2023-03-01T06:32:36;3.47;;;0.77;;
49824;SDS011;35714;55.708;37.478;2023-03-01T06:35:02;3.00;;;0.50;;
49824;SDS011;35714;55.708;37.478;2023-03-01T06:37:29;5.60;;;0.98;;
49824;SDS011;35714;55.708;37.478;2023-03-01T06:39:55;3.83;;;0.50;;
49824;SDS011;35714;55.708;37.478;2023-03-01T06:42:21;3.15;;;0.60;;
49824;SDS011;35714;55.708;37.478;2023-03-01T06:44:48;3.35;;;1.05;;
49824;SDS011;35714;55.708;37.478;2023-03-01T06:47:13;2.92;;;0.68;;
49824;SDS011;35714;55.708;37.478;2023-03-01T06:49:39;3.53;;;1.02;;
49824;SDS011;35714;55.708;37.478;2023-03-01T06:52:04;6.65;;;1.08;;
49824;SDS011;35714;55.708;37.478;2023-03-01T06:54:30;4.43;;;0.70;;
49824;SDS011;35714;55.708;37.478;2023-03-01T06:56:56;5.68;;;0.98;;
49824;SDS011;35714;55.708;37.478;2023-03-01T06:59:21;5.72;;;0.70;;
49824;SDS011;35714;55.708;37.478;2023-03-01T07:01:47;4.50;;;0.90;;
49824;SDS011;35714;55.708;37.478;2023-03-01T07:04:12;2.75;;;0.70;;
49824;SDS011;35714;55.708;37.478;2023-03-01T07:06:38;5.15;;;0.90;;
49824;SDS011;35714;55.708;37.478;2023-03-01T07:09:04;4.72;;;0.70;;
49824;SDS011;35714;55.708;37.478;2023-03-01T07:11:30;3.30;;;0.88;;
49824;SDS011;35714;55.708;37.478;2023-03-01T07:13:55;4.45;;;0.75;;
49824;SDS011;35714;55.708;37.478;2023-03-01T07:16:21;4.32;;;0.65;;
49824;SDS011;35714;55.708;37.478;2023-03-01T07:18:47;2.85;;;0.85;;
49824;SDS011;35714;55.708;37.478;2023-03-01T07:21:13;2.08;;;0.60;;
49824;SDS011;35714;55.708;37.478;2023-03-01T07:23:40;2.08;;;0.60;;
49824;SDS011;35714;55.708;37.478;2023-03-01T07:26:06;3.78;;;0.70;;
49824;SDS011;35714;55.708;37.478;2023-03-01T07:28:32;3.30;;;0.70;;
49824;SDS011;35714;55.708;37.478;2023-03-01T07:31:03;3.08;;;0.50;;
49824;SDS011;35714;55.708;37.478;2023-03-01T07:33:29;3.10;;;0.60;;
49824;SDS011;35714;55.708;37.478;2023-03-01T07:35:58;3.08;;;0.40;;
49824;SDS011;35714;55.708;37.478;2023-03-01T07:38:25;3.20;;;0.80;;
49824;SDS011;35714;55.708;37.478;2023-03-01T07:40:51;3.47;;;0.88;;
49824;SDS011;35714;55.708;37.478;2023-03-01T07:43:20;2.58;;;0.63;;
49824;SDS011;35714;55.708;37.478;2023-03-01T07:45:46;5.68;;;1.27;;
49824;SDS011;35714;55.708;37.478;2023-03-01T07:48:11;2.45;;;0.60;;
49824;SDS011;35714;55.708;37.478;2023-03-01T07:50:37;2.05;;;0.63;;
49824;SDS011;35714;55.708;37.478;2023-03-01T07:53:03;1.92;;;0.57;;
49824;SDS011;35714;55.708;37.478;2023-03-01T07:55:29;2.50;;;0.70;;
49824;SDS011;35714;55.708;37.478;2023-03-01T07:57:55;3.70;;;0.90;;
49824;SDS011;35714;55.708;37.478;2023-03-01T08:00:21;3.65;;;0.80;;
49824;SDS011;35714;55.708;37.478;2023-03-01T08:02:46;3.42;;;0.43;;
49824;SDS011;35714;55.708;37.478;2023-03-01T08:05:12;3.25;;;0.80;;
49824;SDS011;35714;55.708;37.478;2023-03-01T08:07:37;2.97;;;0.57;;
49824;SDS011;35714;55.708;37.478;2023-03-01T08:10:03;2.50;;;0.70;;
49824;SDS011;35714;55.708;37.478;2023-03-01T08:12:29;3.50;;;0.70;;
49824;SDS011;35714;55.708;37.478;2023-03-01T08:14:55;3.60;;;0.80;;
49824;SDS011;35714;55.708;37.478;2023-03-01T08:17:27;3.03;;;1.05;;
49824;SDS011;35714;55.708;37.478;2023-03-01T08:20:02;3.90;;;0.77;;
49824;SDS011;35714;55.708;37.478;2023-03-01T08:22:33;2.28;;;0.70;;
49824;SDS011;35714;55.708;37.478;2023-03-01T08:24:59;2.22;;;0.93;;
49824;SDS011;35714;55.708;37.478;2023-03-01T08:27:25;2.85;;;0.82;;
49824;SDS011;35714;55.708;37.478;2023-03-01T08:29:50;3.08;;;0.70;;
49824;SDS011;35714;55.708;37.478;2023-03-01T08:32:16;3.00;;;0.77;;
49824;SDS011;35714;55.708;37.478;2023-03-01T08:34:42;6.65;;;1.25;;
49824;SDS011;35714;55.708;37.478;2023-03-01T08:37:07;3.42;;;1.05;;
49824;SDS011;35714;55.708;37.478;2023-03-01T08:39:34;4.10;;;0.90;;
49824;SDS011;35714;55.708;37.478;2023-03-01T08:42:00;3.13;;;0.80;;
49824;SDS011;35714;55.708;37.478;2023-03-01T08:44:26;3.38;;;0.90;;
49824;SDS011;35714;55.708;37.478;2023-03-01T08:46:51;3.95;;;0.90;;
49824;SDS011;35714;55.708;37.478;2023-03-01T08:49:19;3.20;;;0.80;;
49824;SDS011;35714;55.708;37.478;2023-03-01T08:51:46;2.30;;;0.80;;
49824;SDS011;35714;55.708;37.478;2023-03-01T08:54:14;3.70;;;0.70;;
49824;SDS011;35714;55.708;37.478;2023-03-01T08:56:43;7.30;;;1.13;;
49824;SDS011;35714;55.708;37.478;2023-03-01T08:59:10;3.75;;;0.82;;
49824;SDS011;35714;55.708;37.478;2023-03-01T09:01:37;3.60;;;0.80;;
49824;SDS011;35714;55.708;37.478;2023-03-01T09:04:02;2.25;;;0.80;;
49824;SDS011;35714;55.708;37.478;2023-03-01T09:06:32;2.65;;;0.60;;
49824;SDS011;35714;55.708;37.478;2023-03-01T09:08:59;3.33;;;0.70;;
49824;SDS011;35714;55.708;37.478;2023-03-01T09:11:25;4.60;;;0.90;;
49824;SDS011;35714;55.708;37.478;2023-03-01T09:13:51;1.20;;;0.50;;
49824;SDS011;35714;55.708;37.478;2023-03-01T09:16:18;3.10;;;0.70;;
49824;SDS011;35714;55.708;37.478;2023-03-01T09:18:45;4.07;;;0.75;;
49824;SDS011;35714;55.708;37.478;2023-03-01T09:21:15;3.85;;;0.98;;
49824;SDS011;35714;55.708;37.478;2023-03-01T09:23:42;3.45;;;0.90;;
49824;SDS011;35714;55.708;37.478;2023-03-01T09:26:11;3.20;;;0.70;;
49824;SDS011;35714;55.708;37.478;2023-03-01T09:28:41;2.90;;;0.82;;
49824;SDS011;35714;55.708;37.478;2023-03-01T09:31:07;3.40;;;0.90;;
49824;SDS011;35714;55.708;37.478;2023-03-01T09:33:33;3.35;;;0.77;;
49824;SDS011;35714;55.708;37.478;2023-03-01T09:36:02;3.13;;;0.75;;
49824;SDS011;35714;55.708;37.478;2023-03-01T09:38:30;2.55;;;0.68;;
49824;SDS011;35714;55.708;37.478;2023-03-01T09:40:56;2.22;;;0.65;;
49824;SDS011;35714;55.708;37.478;2023-03-01T09:45:59;3.10;;;0.68;;
49824;SDS011;35714;55.708;37.478;2023-03-01T09:48:31;4.07;;;1.10;;
49824;SDS011;35714;55.708;37.478;2023-03-01T09:51:02;2.83;;;0.50;;
49824;SDS011;35714;55.708;37.478;2023-03-01T09:53:34;2.58;;;0.80;;
49824;SDS011;35714;55.708;37.478;2023-03-01T10:07:49;3.35;;;0.68;;
49824;SDS011;35714;55.708;37.478;2023-03-01T10:10:32;2.13;;;0.60;;
49824;SDS011;35714;55.708;37.478;2023-03-01T10:13:02;3.47;;;0.68;;
49824;SDS011;35714;55.708;37.478;2023-03-01T10:15:38;2.95;;;0.75;;
49824;SDS011;35714;55.708;37.478;2023-03-01T10:18:26;2.13;;;0.52;;
49824;SDS011;35714;55.708;37.478;2023-03-01T10:21:07;2.47;;;0.55;;
49824;SDS011;35714;55.708;37.478;2023-03-01T10:23:35;2.63;;;0.55;;
49824;SDS011;35714;55.708;37.478;2023-03-01T10:29:07;4.45;;;0.57;;
49824;SDS011;35714;55.708;37.478;2023-03-01T10:34:18;1.73;;;0.47;;
49824;SDS011;35714;55.708;37.478;2023-03-01T10:36:54;3.10;;;0.75;;
49824;SDS011;35714;55.708;37.478;2023-03-01T10:39:23;2.92;;;0.65;;
49824;SDS011;35714;55.708;37.478;2023-03-01T10:41:57;3.28;;;0.63;;
49824;SDS011;35714;55.708;37.478;2023-03-01T10:44:38;3.25;;;0.68;;
49824;SDS011;35714;55.708;37.478;2023-03-01T10:47:13;6.55;;;0.68;;
49824;SDS011;35714;55.708;37.478;2023-03-01T10:52:26;1.88;;;0.60;;
49824;SDS011;35714;55.708;37.478;2023-03-01T10:54:55;2.90;;;0.90;;
49824;SDS011;35714;55.708;37.478;2023-03-01T10:57:27;2.67;;;0.40;;
49824;SDS011;35714;55.708;37.478;2023-03-01T11:05:24;2.15;;;0.47;;
49824;SDS011;35714;55.708;37.478;2023-03-01T11:10:22;2.42;;;0.82;;
49824;SDS011;35714;55.708;37.478;2023-03-01T11:12:50;1.48;;;0.47;;
49824;SDS011;35714;55.708;37.478;2023-03-01T11:15:21;2.15;;;0.57;;
49824;SDS011;35714;55.708;37.478;2023-03-01T11:17:49;2.10;;;0.65;;
49824;SDS011;35714;55.708;37.478;2023-03-01T11:20:20;2.80;;;0.85;;
49824;SDS011;35714;55.708;37.478;2023-03-01T11:23:04;2.88;;;0.55;;
49824;SDS011;35714;55.708;37.478;2023-03-01T11:25:42;1.77;;;0.43;;
49824;SDS011;35714;55.708;37.478;2023-03-01T11:28:14;3.50;;;1.10;;
49824;SDS011;35714;55.708;37.478;2023-03-01T11:33:18;2.45;;;0.28;;
49824;SDS011;35714;55.708;37.478;2023-03-01T11:35:57;2.50;;;0.55;;
49824;SDS011;35714;55.708;37.478;2023-03-01T11:38:27;2.75;;;0.50;;
49824;SDS011;35714;55.708;37.478;2023-03-01T11:52:13;2.60;;;0.60;;
49824;SDS011;35714;55.708;37.478;2023-03-01T12:03:16;2.47;;;0.60;;
49824;SDS011;35714;55.708;37.478;2023-03-01T12:06:19;2.42;;;0.50;;
49824;SDS011;35714;55.708;37.478;2023-03-01T12:09:02;1.85;;;0.47;;
49824;SDS011;35714;55.708;37.478;2023-03-01T12:11:36;3.33;;;0.90;;
49824;SDS011;35714;55.708;37.478;2023-03-01T12:24:43;2.08;;;0.35;;
49824;SDS011;35714;55.708;37.478;2023-03-01T12:27:17;3.15;;;0.68;;
49824;SDS011;35714;55.708;37.478;2023-03-01T12:51:29;3.60;;;0.90;;
49824;SDS011;35714;55.708;37.478;2023-03-01T12:53:58;2.72;;;0.80;;
49824;SDS011;35714;55.708;37.478;2023-03-01T12:56:28;1.77;;;0.43;;
49824;SDS011;35714;55.708;37.478;2023-03-01T13:02:26;3.25;;;0.40;;
49824;SDS011;35714;55.708;37.478;2023-03-01T13:05:06;1.58;;;0.40;;
49824;SDS011;35714;55.708;37.478;2023-03-01T13:07:53;1.25;;;0.38;;
49824;SDS011;35714;55.708;37.478;2023-03-01T13:10:46;2.05;;;0.50;;
49824;SDS011;35714;55.708;37.478;2023-03-01T13:15:46;2.28;;;0.52;;
49824;SDS011;35714;55.708;37.478;2023-03-01T13:23:09;3.83;;;0.90;;
49824;SDS011;35714;55.708;37.478;2023-03-01T13:25:59;1.58;;;0.60;;
49824;SDS011;35714;55.708;37.478;2023-03-01T13:31:02;3.77;;;0.40;;
49824;SDS011;35714;55.708;37.478;2023-03-01T13:35:55;1.98;;;0.50;;
49824;SDS011;35714;55.708;37.478;2023-03-01T13:38:44;4.13;;;0.60;;
49824;SDS011;35714;55.708;37.478;2023-03-01T13:41:11;3.55;;;0.57;;
49824;SDS011;35714;55.708;37.478;2023-03-01T13:43:42;2.30;;;0.50;;
49824;SDS011;35714;55.708;37.478;2023-03-01T13:46:16;2.75;;;0.60;;
49824;SDS011;35714;55.708;37.478;2023-03-01T13:48:48;3.30;;;0.70;;
49824;SDS011;35714;55.708;37.478;2023-03-01T13:51:19;2.55;;;0.50;;
49824;SDS011;35714;55.708;37.478;2023-03-01T13:53:50;1.55;;;0.40;;
49824;SDS011;35714;55.708;37.478;2023-03-01T13:56:24;4.57;;;0.63;;
49824;SDS011;35714;55.708;37.478;2023-03-01T14:03:56;3.05;;;0.40;;
49824;SDS011;35714;55.708;37.478;2023-03-01T14:06:24;3.70;;;0.65;;
49824;SDS011;35714;55.708;37.478;2023-03-01T14:08:52;3.97;;;0.47;;
49824;SDS011;35714;55.708;37.478;2023-03-01T14:19:45;5.63;;;1.13;;
49824;SDS011;35714;55.708;37.478;2023-03-01T14:27:56;3.13;;;1.10;;
49824;SDS011;35714;55.708;37.478;2023-03-01T14:30:44;4.43;;;1.23;;
49824;SDS011;35714;55.708;37.478;2023-03-01T14:33:18;3.03;;;0.82;;
49824;SDS011;35714;55.708;37.478;2023-03-01T14:35:59;3.85;;;1.05;;
49824;SDS011;35714;55.708;37.478;2023-03-01T14:38:31;3.03;;;0.47;;
49824;SDS011;35714;55.708;37.478;2023-03-01T14:40:58;2.70;;;1.08;;
49824;SDS011;35714;55.708;37.478;2023-03-01T14:43:26;1.52;;;0.43;;
49824;SDS011;35714;55.708;37.478;2023-03-01T14:45:54;2.35;;;0.63;;
49824;SDS011;35714;55.708;37.478;2023-03-01T14:48:20;2.00;;;0.43;;
49824;SDS011;35714;55.708;37.478;2023-03-01T14:50:46;1.40;;;0.40;;
49824;SDS011;35714;55.708;37.478;2023-03-01T14:53:16;2.90;;;0.65;;
49824;SDS011;35714;55.708;37.478;2023-03-01T14:55:43;1.20;;;0.30;;
49824;SDS011;35714;55.708;37.478;2023-03-01T14:58:13;2.10;;;0.50;;
49824;SDS011;35714;55.708;37.478;2023-03-01T15:00:59;1.50;;;0.22;;
49824;SDS011;35714;55.708;37.478;2023-03-01T15:03:33;2.08;;;0.68;;
49824;SDS011;35714;55.708;37.478;2023-03-01T15:06:05;1.33;;;0.40;;
49824;SDS011;35714;55.708;37.478;2023-03-01T15:08:32;1.90;;;0.60;;
49824;SDS011;35714;55.708;37.478;2023-03-01T15:13:30;1.10;;;0.35;;
49824;SDS011;35714;55.708;37.478;2023-03-01T15:16:17;3.00;;;0.80;;
49824;SDS011;35714;55.708;37.478;2023-03-01T15:18:48;2.95;;;0.80;;
49824;SDS011;35714;55.708;37.478;2023-03-01T15:21:17;2.70;;;0.60;;
49824;SDS011;35714;55.708;37.478;2023-03-01T15:23:49;3.22;;;0.70;;
49824;SDS011;35714;55.708;37.478;2023-03-01T15:26:28;3.08;;;0.85;;
49824;SDS011;35714;55.708;37.478;2023-03-01T15:29:10;2.17;;;0.40;;
49824;SDS011;35714;55.708;37.478;2023-03-01T15:31:59;0.68;;;0.30;;
49824;SDS011;35714;55.708;37.478;2023-03-01T15:36:56;0.68;;;0.20;;
49824;SDS011;35714;55.708;37.478;2023-03-01T15:42:05;2.85;;;0.50;;
49824;SDS011;35714;55.708;37.478;2023-03-01T15:44:34;4.57;;;0.70;;
49824;SDS011;35714;55.708;37.478;2023-03-01T15:47:01;6.68;;;0.90;;
49824;SDS011;35714;55.708;37.478;2023-03-01T15:49:39;1.50;;;0.20;;
49824;SDS011;35714;55.708;37.478;2023-03-01T15:52:10;1.40;;;0.38;;
49824;SDS011;35714;55.708;37.478;2023-03-01T15:55:01;0.68;;;0.22;;
49824;SDS011;35714;55.708;37.478;2023-03-01T15:57:29;1.60;;;0.50;;
49824;SDS011;35714;55.708;37.478;2023-03-01T15:59:55;2.30;;;0.47;;
49824;SDS011;35714;55.708;37.478;2023-03-01T16:02:21;3.00;;;0.55;;
49824;SDS011;35714;55.708;37.478;2023-03-01T16:04:49;2.10;;;0.55;;
49824;SDS011;35714;55.708;37.478;2023-03-01T16:07:16;1.77;;;0.35;;
49824;SDS011;35714;55.708;37.478;2023-03-01T16:09:41;2.33;;;0.40;;
49824;SDS011;35714;55.708;37.478;2023-03-01T16:12:13;3.38;;;0.70;;
49824;SDS011;35714;55.708;37.478;2023-03-01T16:14:40;1.83;;;0.50;;
49824;SDS011;35714;55.708;37.478;2023-03-01T16:17:05;2.90;;;0.60;;
49824;SDS011;35714;55.708;37.478;2023-03-01T16:19:33;1.80;;;0.40;;
49824;SDS011;35714;55.708;37.478;2023-03-01T16:21:58;1.10;;;0.40;;
49824;SDS011;35714;55.708;37.478;2023-03-01T16:24:24;2.35;;;0.60;;
49824;SDS011;35714;55.708;37.478;2023-03-01T16:26:51;1.45;;;0.43;;
49824;SDS011;35714;55.708;37.478;2023-03-01T16:29:16;3.33;;;0.60;;
49824;SDS011;35714;55.708;37.478;2023-03-01T16:31:42;4.80;;;0.65;;
49824;SDS011;35714;55.708;37.478;2023-03-01T16:34:07;4.00;;;0.55;;
49824;SDS011;35714;55.708;37.478;2023-03-01T16:36:33;3.10;;;0.40;;
49824;SDS011;35714;55.708;37.478;2023-03-01T16:38:59;3.65;;;0.68;;
49824;SDS011;35714;55.708;37.478;2023-03-01T16:41:26;0.90;;;0.20;;
49824;SDS011;35714;55.708;37.478;2023-03-01T16:43:52;2.40;;;0.57;;
49824;SDS011;35714;55.708;37.478;2023-03-01T16:46:23;1.67;;;0.50;;
49824;SDS011;35714;55.708;37.478;2023-03-01T16:48:51;1.75;;;0.50;;
49824;SDS011;35714;55.708;37.478;2023-03-01T16:51:18;5.30;;;0.65;;
49824;SDS011;35714;55.708;37.478;2023-03-01T16:53:45;3.50;;;0.75;;
49824;SDS011;35714;55.708;37.478;2023-03-01T16:56:11;5.95;;;0.70;;
49824;SDS011;35714;55.708;37.478;2023-03-01T16:58:37;1.90;;;0.40;;
49824;SDS011;35714;55.708;37.478;2023-03-01T17:01:05;4.15;;;0.85;;
49824;SDS011;35714;55.708;37.478;2023-03-01T17:03:31;4.68;;;0.88;;
49824;SDS011;35714;55.708;37.478;2023-03-01T17:05:57;2.42;;;0.55;;
49824;SDS011;35714;55.708;37.478;2023-03-01T17:08:26;2.33;;;0.57;;
49824;SDS011;35714;55.708;37.478;2023-03-01T17:10:52;1.48;;;0.43;;
49824;SDS011;35714;55.708;37.478;2023-03-01T17:13:18;1.77;;;0.55;;